Time;durP1;ratioP1;P1;durP2;ratioP2;P2;SDS_P1;SDS_P2;PMS_P1;PMS_P2;Temp;Humidity;BMP_temperature;BMP_pressure;BME280_temperature;BME280_humidity;BME280_pressure;Samples;Min_cycle;Max_cycle;Signal;HPM_P1;HPM_P2
2022/08/12 00:43:26;;;;;;;8.52;2.67;;;24.80;45.90;;;;;;4950317;28;20093;-72
2022/08/12 00:48:37;;;;;;;6.63;2.33;;;24.80;45.80;;;;;;4963507;28;20501;-72
2022/08/12 00:51:04;;;;;;;4.85;2.58;;;24.80;46.00;;;;;;4967196;28;20069;-72
2022/08/12 00:53:30;;;;;;;6.95;2.55;;;24.80;45.80;;;;;;4964851;28;20026;-72
2022/08/12 00:55:57;;;;;;;6.25;2.55;;;24.80;45.70;;;;;;4964112;28;20019;-72
2022/08/12 00:58:30;;;;;;;7.05;3.08;;;24.80;46.00;;;;;;4959615;28;20030;-72
2022/08/12 01:01:07;;;;;;;9.35;2.80;;;24.80;45.80;;;;;;4966989;28;20034;-72
2022/08/12 01:11:51;;;;;;;6.28;2.53;;;24.70;45.70;;;;;;4973455;28;20487;-72
2022/08/12 01:14:24;;;;;;;5.55;2.58;;;24.70;45.80;;;;;;4964702;28;20107;-72
2022/08/12 01:16:54;;;;;;;7.97;3.15;;;24.70;46.40;;;;;;4966173;28;20023;-73
2022/08/12 01:19:22;;;;;;;5.20;3.15;;;24.70;45.70;;;;;;4966462;28;20037;-72
2022/08/12 01:21:54;;;;;;;7.53;3.08;;;24.70;45.70;;;;;;4964276;28;20038;-73
2022/08/12 01:24:53;;;;;;;6.60;3.05;;;24.70;45.80;;;;;;4969149;28;20110;-73
2022/08/12 01:27:21;;;;;;;6.15;2.60;;;24.70;45.80;;;;;;4957828;28;20039;-72
2022/08/12 01:29:50;;;;;;;6.93;2.80;;;24.70;45.70;;;;;;4972451;28;20038;-72
2022/08/12 01:32:19;;;;;;;6.25;2.25;;;24.60;45.90;;;;;;4964389;28;20102;-72
2022/08/12 01:35:07;;;;;;;6.28;2.58;;;24.60;45.70;;;;;;4965131;28;20074;-72
2022/08/12 01:37:41;;;;;;;5.72;2.58;;;24.60;45.90;;;;;;4964750;28;20023;-73
2022/08/12 01:40:09;;;;;;;17.75;2.60;;;24.60;45.80;;;;;;4962903;28;20023;-73
2022/08/12 01:42:49;;;;;;;6.93;2.83;;;24.60;45.80;;;;;;4973863;28;20039;-72
2022/08/12 01:45:23;;;;;;;5.32;2.35;;;24.60;45.80;;;;;;4964075;28;20042;-72
2022/08/12 01:48:13;;;;;;;7.75;2.88;;;24.60;45.90;;;;;;4962027;28;20380;-72
2022/08/12 01:50:58;;;;;;;6.95;2.53;;;24.60;45.90;;;;;;4967015;28;20113;-72
2022/08/12 01:53:31;;;;;;;10.30;2.60;;;24.60;45.90;;;;;;4966629;28;20023;-72
2022/08/12 01:55:58;;;;;;;6.47;2.25;;;24.60;45.80;;;;;;4972639;28;20467;-72
2022/08/12 02:01:26;;;;;;;3.05;2.08;;;24.60;45.80;;;;;;4959419;28;20027;-72
2022/08/12 02:13:32;;;;;;;10.23;3.00;;;24.50;45.70;;;;;;4959224;28;20027;-73
2022/08/12 02:16:04;;;;;;;11.88;2.60;;;24.50;45.70;;;;;;4961864;28;20023;-72
2022/08/12 02:18:39;;;;;;;7.63;2.90;;;24.50;45.70;;;;;;4955045;28;20031;-72
2022/08/12 02:21:23;;;;;;;7.35;2.35;;;24.50;45.60;;;;;;4957077;28;20043;-72
2022/08/12 02:23:50;;;;;;;5.72;2.42;;;24.50;45.60;;;;;;4964419;28;20038;-72
2022/08/12 02:26:17;;;;;;;4.82;2.30;;;24.40;45.50;;;;;;4954506;28;20027;-72
2022/08/12 02:28:44;;;;;;;6.60;2.80;;;24.40;45.60;;;;;;4964314;28;20038;-72
2022/08/12 02:31:11;;;;;;;7.65;2.80;;;24.40;45.40;;;;;;4951615;28;20077;-73
2022/08/12 02:33:38;;;;;;;6.93;2.40;;;24.50;45.30;;;;;;4966070;28;20034;-72
2022/08/12 02:36:04;;;;;;;7.43;2.38;;;24.40;45.30;;;;;;4966832;28;20405;-72
2022/08/12 02:38:31;;;;;;;6.85;2.90;;;24.40;45.20;;;;;;4966155;28;20395;-72
2022/08/12 02:41:00;;;;;;;8.15;2.50;;;24.40;45.20;;;;;;4966954;28;20078;-72
2022/08/12 02:43:36;;;;;;;6.30;2.60;;;24.40;45.10;;;;;;4958186;28;20028;-72
2022/08/12 02:46:04;;;;;;;12.07;2.60;;;24.40;45.10;;;;;;4943017;28;20027;-71
2022/08/12 02:48:49;;;;;;;8.70;2.88;;;24.40;45.00;;;;;;4964824;28;20035;-72
2022/08/12 02:51:22;;;;;;;5.32;2.53;;;24.40;45.10;;;;;;4950496;28;20428;-72
2022/08/12 02:53:49;;;;;;;5.57;2.47;;;24.30;45.00;;;;;;4962519;28;20439;-72
2022/08/12 02:56:16;;;;;;;9.30;2.85;;;24.30;44.90;;;;;;4955895;28;20031;-73
2022/08/12 02:58:45;;;;;;;8.27;2.65;;;24.30;44.90;;;;;;4965946;28;20066;-72
2022/08/12 03:01:12;;;;;;;5.07;2.80;;;24.30;45.00;;;;;;4969680;28;20030;-73
2022/08/12 03:03:39;;;;;;;7.80;2.50;;;24.30;44.90;;;;;;4965738;28;20062;-72
2022/08/12 03:06:22;;;;;;;4.53;2.22;;;24.40;45.00;;;;;;4968761;28;20084;-72
2022/08/12 03:08:56;;;;;;;7.60;2.58;;;24.30;44.90;;;;;;4963470;28;20054;-73
2022/08/12 03:11:49;;;;;;;6.97;3.10;;;24.30;44.90;;;;;;4962654;28;20345;-72
2022/08/12 03:14:17;;;;;;;4.95;2.30;;;24.30;44.90;;;;;;4935451;28;20039;-71
2022/08/12 03:16:53;;;;;;;8.48;2.60;;;24.30;45.00;;;;;;4954996;28;20066;-72
2022/08/12 03:19:20;;;;;;;6.35;2.75;;;24.30;45.00;;;;;;4961424;28;20455;-72
2022/08/12 03:21:50;;;;;;;4.50;2.33;;;24.30;45.60;;;;;;4960129;28;20027;-72
2022/08/12 03:24:18;;;;;;;8.13;3.00;;;24.30;45.00;;;;;;4965125;28;20062;-72
2022/08/12 03:26:47;;;;;;;9.15;2.78;;;24.30;45.20;;;;;;4967950;28;20039;-72
2022/08/12 03:29:15;;;;;;;9.35;2.47;;;24.30;45.10;;;;;;4962638;28;20031;-72
2022/08/12 03:31:42;;;;;;;5.10;2.45;;;24.30;45.10;;;;;;4952759;28;20106;-72
2022/08/12 03:34:12;;;;;;;4.63;2.50;;;24.20;45.10;;;;;;4963994;28;20078;-72
2022/08/12 03:36:41;;;;;;;10.07;3.20;;;24.20;45.20;;;;;;4969954;28;20037;-72
2022/08/12 03:41:59;;;;;;;8.88;4.18;;;24.20;45.00;;;;;;4970996;28;20037;-72
2022/08/12 04:01:30;;;;;;;5.90;2.97;;;24.20;45.00;;;;;;4967709;28;20026;-72
2022/08/12 04:03:56;;;;;;;12.30;4.25;;;24.20;44.90;;;;;;4959235;28;20551;-72
2022/08/12 04:06:25;;;;;;;8.90;4.82;;;24.20;44.80;;;;;;4964296;28;20023;-72
2022/08/12 04:08:56;;;;;;;9.30;4.70;;;24.20;44.70;;;;;;4964141;28;20110;-73
2022/08/12 04:14:19;;;;;;;17.23;7.57;;;24.10;44.70;;;;;;4962214;28;20023;-72
2022/08/12 04:16:49;;;;;;;15.35;7.13;;;24.20;44.70;;;;;;4964436;28;20027;-72
2022/08/12 04:19:16;;;;;;;14.55;6.05;;;24.20;44.80;;;;;;4967229;28;20394;-72
2022/08/12 04:21:43;;;;;;;13.68;7.00;;;24.10;44.70;;;;;;4967343;28;20383;-72
2022/08/12 04:24:10;;;;;;;13.85;5.90;;;24.10;44.70;;;;;;4977303;28;20089;-72
2022/08/12 04:26:38;;;;;;;8.82;4.88;;;24.10;44.70;;;;;;4956569;28;20499;-72
2022/08/12 04:29:05;;;;;;;9.50;3.97;;;24.10;44.80;;;;;;4958071;28;20077;-72
2022/08/12 04:31:40;;;;;;;10.85;3.42;;;24.10;44.80;;;;;;4962923;28;20051;-72
2022/08/12 04:34:07;;;;;;;9.35;3.22;;;24.10;44.80;;;;;;4967903;28;20033;-72
2022/08/12 04:36:36;;;;;;;7.65;3.20;;;24.10;44.80;;;;;;4965744;28;20059;-72
2022/08/12 04:39:04;;;;;;;6.35;2.67;;;24.10;44.80;;;;;;4959131;28;20094;-72
2022/08/12 04:41:30;;;;;;;9.43;3.35;;;24.10;44.80;;;;;;4963285;28;20051;-73
2022/08/12 04:43:56;;;;;;;8.00;2.85;;;24.10;44.80;;;;;;4958773;28;20035;-72
2022/08/12 04:46:24;;;;;;;9.32;3.03;;;24.00;44.80;;;;;;4964829;28;20058;-72
2022/08/12 04:48:53;;;;;;;11.88;5.95;;;24.00;44.80;;;;;;4965638;28;20031;-72
2022/08/12 04:51:20;;;;;;;19.55;8.18;;;24.10;44.90;;;;;;4964111;28;20023;-72
2022/08/12 04:53:47;;;;;;;21.88;6.78;;;24.10;45.10;;;;;;4971828;28;20054;-72
2022/08/12 04:56:14;;;;;;;8.98;4.32;;;24.00;45.00;;;;;;4962362;28;20395;-72
2022/08/12 04:58:41;;;;;;;11.48;4.18;;;24.10;45.20;;;;;;4966904;28;20034;-72
2022/08/12 05:01:07;;;;;;;9.52;3.42;;;24.10;45.10;;;;;;4960414;28;20035;-73
2022/08/12 05:03:42;;;;;;;14.05;3.22;;;24.10;45.20;;;;;;4956365;28;20023;-72
2022/08/12 05:06:08;;;;;;;8.88;3.40;;;24.10;45.30;;;;;;4962648;28;20037;-72
2022/08/12 05:08:35;;;;;;;8.90;2.88;;;24.00;45.30;;;;;;4962204;28;20031;-72
2022/08/12 05:11:02;;;;;;;11.05;3.30;;;24.00;45.40;;;;;;4966509;28;20023;-72
2022/08/12 05:13:36;;;;;;;9.98;2.78;;;24.10;45.60;;;;;;4966134;28;20024;-72
2022/08/12 05:16:03;;;;;;;8.50;2.92;;;24.10;45.50;;;;;;4974080;28;20061;-72
2022/08/12 05:18:29;;;;;;;6.38;3.30;;;24.00;45.40;;;;;;4946575;29;20106;-72
2022/08/12 05:20:54;;;;;;;6.80;3.22;;;24.10;45.50;;;;;;4965679;28;20639;-72
2022/08/12 05:23:21;;;;;;;8.27;3.40;;;24.10;45.40;;;;;;4967506;28;20054;-72
2022/08/12 05:25:50;;;;;;;12.65;3.50;;;24.00;45.60;;;;;;4969756;28;20031;-72
2022/08/12 05:28:17;;;;;;;4.65;2.85;;;24.10;45.60;;;;;;4966109;28;20054;-72
2022/08/12 05:30:44;;;;;;;8.50;2.60;;;24.20;45.70;;;;;;4959238;28;20023;-71
2022/08/12 05:33:14;;;;;;;9.38;3.10;;;24.20;45.30;;;;;;4960533;28;20391;-71
2022/08/12 05:35:41;;;;;;;;;;;24.20;45.40;;;;;;4959337;28;20027;-72
2022/08/12 05:41:01;;;;;;;6.13;2.75;;;24.20;45.40;;;;;;4960840;28;20120;-72
2022/08/12 05:43:27;;;;;;;8.98;3.03;;;24.20;45.30;;;;;;4958261;28;20031;-72
2022/08/12 05:45:53;;;;;;;9.68;3.15;;;24.20;45.30;;;;;;4958489;28;20050;-72
2022/08/12 05:48:20;;;;;;;13.57;3.10;;;24.30;45.30;;;;;;4963235;28;20026;-72
2022/08/12 05:50:47;;;;;;;10.88;3.85;;;24.20;45.40;;;;;;4961270;28;20496;-72
2022/08/12 05:53:13;;;;;;;13.43;4.10;;;24.30;45.40;;;;;;4965549;28;20101;-72
2022/08/12 05:55:39;;;;;;;13.23;3.97;;;24.30;45.30;;;;;;4959149;28;20030;-72
2022/08/12 05:58:06;;;;;;;13.68;4.43;;;24.30;45.40;;;;;;4958515;28;20031;-73
2022/08/12 06:00:33;;;;;;;10.45;3.80;;;24.30;45.60;;;;;;4964043;28;20114;-72
2022/08/12 06:03:04;;;;;;;10.23;4.20;;;24.30;45.60;;;;;;4973592;28;20038;-72
2022/08/12 06:05:33;;;;;;;11.88;4.38;;;24.30;45.30;;;;;;4972883;28;20030;-73
2022/08/12 06:08:00;;;;;;;11.48;4.45;;;24.30;45.30;;;;;;4969821;28;20074;-72
2022/08/12 06:10:26;;;;;;;11.95;3.97;;;24.30;45.20;;;;;;4954201;28;20030;-72
2022/08/12 06:12:52;;;;;;;18.90;5.72;;;24.30;45.20;;;;;;4944919;28;20023;-71
2022/08/12 06:15:19;;;;;;;22.33;11.63;;;24.30;45.60;;;;;;4959727;28;20415;-72
2022/08/12 06:17:45;;;;;;;28.98;21.73;;;24.30;45.30;;;;;;4955888;28;20039;-72
2022/08/12 06:20:14;;;;;;;26.27;18.25;;;24.30;45.90;;;;;;4966975;28;20054;-72
2022/08/12 06:22:40;;;;;;;18.67;10.93;;;24.30;45.70;;;;;;4957252;28;20031;-72
2022/08/12 06:25:07;;;;;;;20.52;8.82;;;24.40;45.50;;;;;;4953616;29;20460;-72
2022/08/12 06:27:40;;;;;;;12.23;5.25;;;24.40;45.40;;;;;;4950281;28;20114;-72
2022/08/12 06:30:07;;;;;;;14.15;7.40;;;24.40;45.40;;;;;;4934918;29;20043;-72
2022/08/12 06:32:33;;;;;;;11.70;5.07;;;24.40;45.70;;;;;;4936119;29;20032;-72
2022/08/12 06:34:58;;;;;;;11.45;4.32;;;24.40;46.00;;;;;;4945991;28;20118;-72
2022/08/12 06:43:56;;;;;;;9.95;4.93;;;24.50;46.60;;;;;;4965599;28;20546;-72
2022/08/12 06:46:23;;;;;;;11.13;5.00;;;24.50;46.20;;;;;;4972000;28;20085;-72
2022/08/12 06:48:55;;;;;;;15.05;4.40;;;24.50;46.90;;;;;;4956449;28;20479;-72
2022/08/12 06:51:21;;;;;;;13.55;4.30;;;24.50;47.10;;;;;;4972952;28;20031;-73
2022/08/12 06:53:47;;;;;;;13.18;4.35;;;24.50;49.50;;;;;;4972356;28;20342;-72
2022/08/12 06:56:13;;;;;;;7.28;3.28;;;24.50;48.80;;;;;;4973302;28;20106;-73
2022/08/12 06:58:39;;;;;;;13.20;4.85;;;24.50;47.00;;;;;;4971944;28;20085;-72
2022/08/12 07:01:06;;;;;;;11.57;4.22;;;24.50;46.90;;;;;;4972609;28;20031;-73
2022/08/12 07:03:32;;;;;;;12.02;3.47;;;24.60;46.60;;;;;;4973734;28;20047;-72
2022/08/12 07:06:01;;;;;;;7.78;3.50;;;24.60;46.50;;;;;;4972998;28;20316;-72
2022/08/12 07:08:28;;;;;;;13.90;3.70;;;24.60;46.00;;;;;;4973431;28;20026;-72
2022/08/12 07:11:00;;;;;;;10.32;3.63;;;24.60;46.10;;;;;;4973693;28;20391;-72
2022/08/12 07:13:44;;;;;;;7.60;3.50;;;24.60;46.00;;;;;;4973493;28;20100;-72
2022/08/12 07:16:13;;;;;;;9.65;3.00;;;24.60;46.00;;;;;;4971632;28;20019;-72
2022/08/12 07:18:41;;;;;;;4.78;2.72;;;24.70;46.10;;;;;;4955981;28;20038;-72
2022/08/12 07:21:08;;;;;;;6.57;2.53;;;24.70;46.10;;;;;;4972432;28;20039;-71
2022/08/12 07:23:36;;;;;;;13.63;2.45;;;24.70;46.00;;;;;;4955871;28;20043;-71
2022/08/12 07:26:05;;;;;;;8.55;2.25;;;24.70;45.90;;;;;;4971469;28;20030;-72
2022/08/12 07:28:34;;;;;;;7.13;2.30;;;24.80;45.10;;;;;;4973214;28;20034;-72
2022/08/12 07:31:07;;;;;;;6.80;2.20;;;24.80;45.70;;;;;;4973687;28;20027;-72
2022/08/12 07:33:37;;;;;;;7.90;2.15;;;24.80;45.40;;;;;;4971951;28;20031;-71
2022/08/12 07:36:05;;;;;;;7.82;2.55;;;24.90;45.20;;;;;;4972452;28;20027;-71
2022/08/12 07:38:35;;;;;;;4.78;1.95;;;24.90;45.00;;;;;;4972058;28;20027;-71
2022/08/12 07:41:10;;;;;;;6.82;2.00;;;24.90;44.50;;;;;;4956032;28;20423;-72
2022/08/12 07:43:41;;;;;;;6.00;2.00;;;24.90;45.00;;;;;;4972980;28;20041;-72
2022/08/12 07:46:10;;;;;;;9.10;1.73;;;24.80;44.80;;;;;;4972430;28;20075;-71
2022/08/12 07:48:43;;;;;;;6.85;1.75;;;24.90;45.10;;;;;;4939543;28;20035;-71
2022/08/12 07:51:10;;;;;;;5.57;1.83;;;24.90;44.80;;;;;;4973201;28;20027;-71
2022/08/12 07:53:37;;;;;;;5.38;1.70;;;25.00;44.90;;;;;;4971541;28;20082;-72
2022/08/12 07:56:05;;;;;;;9.95;2.05;;;25.00;44.70;;;;;;4972284;28;20043;-72
2022/08/12 07:58:31;;;;;;;4.65;2.15;;;25.00;44.70;;;;;;4972947;28;20384;-72
2022/08/12 08:01:03;;;;;;;11.73;2.10;;;25.00;44.60;;;;;;4971932;28;20031;-71
2022/08/12 08:03:29;;;;;;;13.60;3.15;;;25.00;44.70;;;;;;4955518;28;20030;-71
2022/08/12 08:05:55;;;;;;;10.13;3.13;;;25.00;45.10;;;;;;4972196;28;20030;-71
2022/08/12 08:08:24;;;;;;;5.65;2.75;;;25.00;44.70;;;;;;4971810;28;20045;-71
2022/08/12 08:12:52;;;;;;;7.25;2.83;;;25.10;44.10;;;;;;4972900;28;20027;-71
2022/08/12 08:13:40;;;;;;;8.60;2.83;;;25.20;43.80;;;;;;4971316;28;20027;-71
2022/08/12 08:16:06;;;;;;;7.20;2.63;;;25.20;43.80;;;;;;4972002;28;20118;-71
2022/08/12 08:18:32;;;;;;;10.05;2.60;;;25.10;43.90;;;;;;4971676;28;20448;-71
2022/08/12 08:20:58;;;;;;;5.38;2.28;;;25.20;43.70;;;;;;4971531;28;20065;-71
2022/08/12 08:26:09;;;;;;;6.57;1.98;;;25.30;43.90;;;;;;4970206;28;20038;-71
2022/08/12 08:28:35;;;;;;;4.72;2.13;;;25.30;43.70;;;;;;4972601;28;20039;-71
2022/08/12 08:31:01;;;;;;;7.32;1.70;;;25.20;43.40;;;;;;4972582;28;20119;-71
2022/08/12 08:33:27;;;;;;;3.50;1.90;;;25.20;43.70;;;;;;4972586;28;20394;-71
2022/08/12 08:35:52;;;;;;;6.90;1.88;;;25.30;43.60;;;;;;4971858;28;20027;-72
2022/08/12 08:38:18;;;;;;;4.97;1.50;;;25.10;43.00;;;;;;4972938;28;20109;-71
2022/08/12 08:43:31;;;;;;;3.67;1.40;;;25.10;42.80;;;;;;4972616;28;20456;-71
2022/08/12 08:46:00;;;;;;;2.92;1.40;;;25.10;43.20;;;;;;4971663;28;20050;-72
2022/08/12 08:48:29;;;;;;;5.60;1.25;;;25.20;42.70;;;;;;4972465;28;20038;-71
2022/08/12 08:50:55;;;;;;;1.80;1.23;;;25.30;42.00;;;;;;4971164;28;20038;-71
2022/08/12 08:53:21;;;;;;;1.42;1.10;;;25.40;41.60;;;;;;4972492;28;20023;-71
2022/08/12 08:55:49;;;;;;;3.17;1.20;;;25.40;42.00;;;;;;4971668;28;20045;-72
2022/08/12 08:58:15;;;;;;;2.47;1.05;;;25.30;41.90;;;;;;4972472;28;20030;-72
2022/08/12 09:00:41;;;;;;;6.03;1.30;;;25.20;42.60;;;;;;4972365;28;20057;-71
2022/08/12 09:03:07;;;;;;;7.85;1.13;;;25.30;42.00;;;;;;4972443;28;20033;-71
2022/08/12 09:05:34;;;;;;;7.38;1.52;;;25.50;41.60;;;;;;4972220;28;20030;-72
2022/08/12 09:08:03;;;;;;;2.70;1.13;;;25.50;41.90;;;;;;4974800;28;20027;-71
2022/08/12 09:10:29;;;;;;;4.83;1.30;;;25.50;42.00;;;;;;4974643;28;20039;-71
2022/08/12 09:15:40;;;;;;;3.10;1.10;;;25.60;41.00;;;;;;4956509;28;20428;-71
2022/08/12 09:18:08;;;;;;;8.52;1.90;;;25.70;41.20;;;;;;4956270;28;20054;-70
2022/08/12 09:20:34;;;;;;;6.70;1.65;;;25.70;40.20;;;;;;4956238;28;20035;-71
2022/08/12 09:23:04;;;;;;;4.95;1.90;;;25.80;40.30;;;;;;4954882;28;20035;-71
2022/08/12 09:25:30;;;;;;;5.22;1.70;;;25.90;41.50;;;;;;4955574;28;20035;-71
2022/08/12 09:28:00;;;;;;;7.40;1.73;;;25.70;40.70;;;;;;4955024;29;20039;-71
2022/08/12 09:30:26;;;;;;;;;;;25.70;40.80;;;;;;4956362;28;20042;-71
2022/08/12 09:32:52;;;;;;;11.07;1.90;;;25.70;40.80;;;;;;4955951;28;19910;-71
2022/08/12 09:35:30;;;;;;;6.88;1.58;;;25.70;40.90;;;;;;4955068;29;20054;-70
2022/08/12 09:37:56;;;;;;;9.13;4.15;;;25.80;41.00;;;;;;4955396;28;20034;-71
2022/08/12 09:40:23;;;;;;;38.58;23.80;;;25.70;41.00;;;;;;4954782;29;20035;-71
2022/08/12 09:45:34;;;;;;;14.77;6.93;;;26.00;40.90;;;;;;4935760;29;20035;-71
2022/08/12 09:48:07;;;;;;;11.57;4.80;;;25.90;40.20;;;;;;4919766;29;20530;-71
2022/08/12 09:50:35;;;;;;;7.72;3.78;;;25.90;40.60;;;;;;4939010;29;20433;-71
2022/08/12 09:53:06;;;;;;;5.82;2.70;;;25.90;40.40;;;;;;4954431;28;20469;-71
2022/08/12 09:55:33;;;;;;;6.18;3.03;;;26.00;40.10;;;;;;4953736;29;20472;-71
2022/08/12 09:57:59;;;;;;;8.65;2.50;;;26.10;40.00;;;;;;4955594;28;20046;-71
2022/08/12 10:00:26;;;;;;;5.22;1.85;;;25.90;40.30;;;;;;4954298;28;20479;-71
2022/08/12 10:03:00;;;;;;;4.40;1.75;;;25.90;40.00;;;;;;4954442;29;20065;-71
2022/08/12 10:05:26;;;;;;;8.90;1.98;;;26.00;40.20;;;;;;4953427;29;20035;-71
2022/08/12 10:07:52;;;;;;;5.32;1.73;;;25.90;39.90;;;;;;4955493;28;20491;-71
2022/08/12 10:10:18;;;;;;;5.50;2.10;;;25.80;40.00;;;;;;4955210;28;20028;-71
2022/08/12 10:15:30;;;;;;;4.32;1.83;;;25.70;40.20;;;;;;4936903;28;20054;-71
2022/08/12 10:17:56;;;;;;;4.72;2.17;;;25.80;39.50;;;;;;4953176;29;20020;-71
2022/08/12 10:20:22;;;;;;;8.00;1.83;;;25.90;39.60;;;;;;4955244;28;20031;-71
2022/08/12 10:22:58;;;;;;;5.85;1.30;;;25.90;39.50;;;;;;4953611;29;20059;-71
2022/08/12 10:30:52;;;;;;;4.15;1.67;;;26.00;39.40;;;;;;4955144;29;20070;-71
2022/08/12 10:33:18;;;;;;;6.05;1.42;;;26.00;39.10;;;;;;4955258;28;20054;-71
2022/08/12 10:35:44;;;;;;;5.43;1.42;;;26.10;39.20;;;;;;4952861;28;20241;-71
2022/08/12 10:38:10;;;;;;;5.93;1.40;;;25.90;38.50;;;;;;4954989;29;20031;-71
2022/08/12 10:43:39;;;;;;;2.33;1.17;;;25.80;39.00;;;;;;4953618;29;20115;-70
2022/08/12 10:43:41;;;;;;;7.18;1.73;;;25.80;39.30;;;;;;4954766;29;20028;-70
2022/08/12 10:46:16;;;;;;;5.63;1.70;;;25.90;39.30;;;;;;4952847;29;20027;-70
2022/08/12 10:48:50;;;;;;;4.20;1.70;;;26.00;39.00;;;;;;4954745;28;20126;-71
2022/08/12 10:51:17;;;;;;;4.28;1.30;;;26.00;39.00;;;;;;4954650;28;20106;-71
2022/08/12 10:53:45;;;;;;;4.32;1.88;;;26.00;39.10;;;;;;4954567;28;20113;-72
2022/08/12 10:56:11;;;;;;;4.65;1.77;;;25.90;39.10;;;;;;4953562;28;20032;-71
2022/08/12 10:58:38;;;;;;;15.75;2.22;;;26.00;38.70;;;;;;4954554;28;20028;-71
2022/08/12 11:01:05;;;;;;;9.98;1.90;;;25.90;38.50;;;;;;4969354;28;20046;-71
2022/08/12 11:03:37;;;;;;;11.38;1.95;;;25.90;39.00;;;;;;4953343;28;20034;-72
2022/08/12 11:06:05;;;;;;;10.90;2.05;;;26.10;39.00;;;;;;4952241;28;20027;-72
2022/08/12 11:08:31;;;;;;;9.75;2.08;;;26.20;38.70;;;;;;4954153;28;20105;-71
2022/08/12 11:10:57;;;;;;;7.82;1.70;;;26.20;38.60;;;;;;4951539;28;20119;-71
2022/08/12 11:13:23;;;;;;;5.85;1.98;;;26.30;38.60;;;;;;4953537;28;20141;-72
2022/08/12 11:15:49;;;;;;;7.97;1.83;;;26.30;38.70;;;;;;4952844;28;20028;-72
2022/08/12 11:18:15;;;;;;;8.45;2.00;;;26.20;38.60;;;;;;4954259;28;20031;-72
2022/08/12 11:20:41;;;;;;;6.15;1.50;;;26.30;38.50;;;;;;4954242;28;20115;-72
2022/08/12 11:23:07;;;;;;;7.45;1.60;;;26.20;39.00;;;;;;4952385;28;20129;-71
2022/08/12 11:25:32;;;;;;;6.47;1.35;;;26.20;39.10;;;;;;4957573;28;20031;-71
2022/08/12 11:27:58;;;;;;;8.82;1.65;;;26.10;39.00;;;;;;4955212;28;20038;-71
2022/08/12 11:30:24;;;;;;;3.88;1.67;;;26.10;39.50;;;;;;4952625;28;20034;-71
2022/08/12 11:32:50;;;;;;;5.05;1.80;;;26.10;39.40;;;;;;4962977;28;20087;-71
2022/08/12 11:35:15;;;;;;;7.13;1.50;;;26.10;38.90;;;;;;4952189;29;20023;-72
2022/08/12 11:37:41;;;;;;;4.63;1.75;;;26.20;39.50;;;;;;4952397;28;20061;-72
2022/08/12 11:40:07;;;;;;;5.95;1.75;;;26.10;40.20;;;;;;4978056;28;20033;-72
2022/08/12 11:42:35;;;;;;;12.00;1.77;;;26.10;40.40;;;;;;4971869;28;20546;-71
2022/08/12 11:45:01;;;;;;;9.55;1.70;;;26.10;40.10;;;;;;4961535;28;20023;-71
2022/08/12 11:47:27;;;;;;;9.52;1.55;;;26.10;39.80;;;;;;4970735;28;20035;-72
2022/08/12 11:49:53;;;;;;;11.93;1.70;;;26.10;39.70;;;;;;4972559;28;20487;-72
2022/08/12 11:52:19;;;;;;;5.07;1.70;;;26.10;39.70;;;;;;4972859;28;20027;-72
2022/08/12 11:54:45;;;;;;;5.32;1.40;;;26.10;40.10;;;;;;4962009;28;20369;-72
2022/08/12 11:57:11;;;;;;;8.52;1.60;;;26.10;40.30;;;;;;4947579;28;20034;-72
2022/08/12 11:59:36;;;;;;;8.07;1.50;;;26.10;40.50;;;;;;4960222;28;20038;-71
2022/08/12 12:02:02;;;;;;;5.63;1.00;;;26.10;40.50;;;;;;4970757;28;20026;-71
2022/08/12 12:04:28;;;;;;;5.70;1.40;;;26.10;40.10;;;;;;4965617;28;20515;-72
2022/08/12 12:06:54;;;;;;;3.83;1.75;;;26.10;40.50;;;;;;4960944;28;20039;-72
2022/08/12 12:09:20;;;;;;;9.55;3.92;;;26.10;40.20;;;;;;4968568;28;20425;-72
2022/08/12 12:11:45;;;;;;;5.05;2.88;;;26.10;40.00;;;;;;4953595;28;20397;-73
2022/08/12 12:14:11;;;;;;;12.30;3.08;;;26.10;39.70;;;;;;4951481;28;20019;-71
2022/08/12 12:16:37;;;;;;;5.20;2.65;;;26.00;39.30;;;;;;4952016;28;20027;-72
2022/08/12 12:19:04;;;;;;;8.63;3.08;;;26.00;39.50;;;;;;4943909;28;20027;-71
2022/08/12 12:21:30;;;;;;;9.05;1.52;;;26.10;40.00;;;;;;4950162;28;20030;-71
2022/08/12 12:23:56;;;;;;;6.05;1.92;;;26.20;39.00;;;;;;4967681;23;20080;-72
2022/08/12 12:26:22;;;;;;;4.78;1.60;;;26.20;39.20;;;;;;4953973;28;20063;-72
2022/08/12 12:28:47;;;;;;;3.22;1.55;;;26.10;38.50;;;;;;4939693;28;20035;-72
2022/08/12 12:31:13;;;;;;;5.43;1.60;;;26.10;38.50;;;;;;4934848;28;20027;-73
2022/08/12 12:33:39;;;;;;;3.80;1.50;;;26.10;38.60;;;;;;4982389;28;20050;-73
2022/08/12 12:36:07;;;;;;;6.88;1.55;;;26.20;39.00;;;;;;4979089;28;20451;-72
2022/08/12 12:38:33;;;;;;;11.73;2.15;;;26.20;37.70;;;;;;4933994;28;20028;-72
2022/08/12 12:40:59;;;;;;;4.85;1.38;;;26.30;39.00;;;;;;4958026;28;20045;-72
2022/08/12 12:43:25;;;;;;;3.42;1.00;;;26.30;38.50;;;;;;4976318;28;20026;-72
2022/08/12 12:45:51;;;;;;;5.90;1.40;;;26.20;37.70;;;;;;4958107;28;20031;-72
2022/08/12 12:48:18;;;;;;;5.32;1.42;;;26.20;38.90;;;;;;4976505;28;20030;-74
2022/08/12 12:50:47;;;;;;;6.28;1.80;;;26.20;38.50;;;;;;4976109;28;20041;-72
2022/08/12 12:53:20;;;;;;;3.67;1.27;;;26.30;37.80;;;;;;4976232;28;20023;-72
2022/08/12 12:55:46;;;;;;;5.35;1.23;;;26.20;38.90;;;;;;4975289;28;20054;-72
2022/08/12 12:58:15;;;;;;;2.90;1.20;;;26.30;38.60;;;;;;4968128;28;20140;-72
2022/08/12 13:00:43;;;;;;;3.70;1.23;;;26.20;38.10;;;;;;4976178;28;20058;-72
2022/08/12 13:03:11;;;;;;;3.08;1.20;;;26.20;39.00;;;;;;4958556;28;20039;-72
2022/08/12 13:05:38;;;;;;;2.85;1.45;;;26.40;38.60;;;;;;4975062;28;20065;-72
2022/08/12 13:08:25;;;;;;;8.23;1.30;;;26.40;38.30;;;;;;4958590;28;20505;-73
2022/08/12 13:10:52;;;;;;;9.05;1.40;;;26.30;37.80;;;;;;4975635;28;20503;-73
2022/08/12 13:13:19;;;;;;;4.88;1.58;;;26.30;38.50;;;;;;4975781;28;20033;-72
2022/08/12 13:15:48;;;;;;;4.22;1.40;;;26.20;38.20;;;;;;4962434;28;20106;-72
2022/08/12 13:18:16;;;;;;;4.03;1.30;;;26.20;38.30;;;;;;4956522;29;20086;-72
2022/08/12 13:20:44;;;;;;;5.32;1.58;;;26.20;38.30;;;;;;4939176;29;20086;-72
2022/08/12 13:23:10;;;;;;;3.03;1.40;;;26.20;38.40;;;;;;4964481;28;20027;-72
2022/08/12 13:25:36;;;;;;;2.17;1.20;;;26.20;38.20;;;;;;4974616;28;20045;-73
2022/08/12 13:28:02;;;;;;;4.95;1.60;;;26.20;38.00;;;;;;4975350;28;20109;-72
2022/08/12 13:30:29;;;;;;;4.75;1.58;;;26.20;38.70;;;;;;4975318;28;20475;-72
2022/08/12 13:32:57;;;;;;;4.10;1.80;;;26.20;38.90;;;;;;4961840;28;20031;-72
2022/08/12 13:35:34;;;;;;;3.03;1.60;;;26.10;39.40;;;;;;4937941;29;20157;-73
2022/08/12 13:38:00;;;;;;;3.70;1.98;;;26.20;39.60;;;;;;4956148;29;20051;-73
2022/08/12 13:40:28;;;;;;;4.22;2.13;;;26.20;39.50;;;;;;4975449;28;20030;-73
2022/08/12 13:42:56;;;;;;;7.55;1.98;;;26.20;38.90;;;;;;4983842;28;20035;-72
2022/08/12 13:45:27;;;;;;;7.68;2.78;;;26.20;38.70;;;;;;4941301;28;20034;-74
2022/08/12 13:48:03;;;;;;;14.25;4.43;;;26.20;39.20;;;;;;4942176;28;20405;-73
2022/08/12 13:50:38;;;;;;;8.75;3.88;;;26.20;39.40;;;;;;4976751;28;20058;-72
2022/08/12 13:53:09;;;;;;;7.85;3.35;;;26.20;39.30;;;;;;4960996;28;20037;-71
2022/08/12 13:55:44;;;;;;;3.80;2.20;;;26.20;39.50;;;;;;4960113;28;20434;-72
2022/08/12 13:58:17;;;;;;;11.98;2.20;;;26.10;39.40;;;;;;4994538;28;20073;-72
2022/08/12 14:00:45;;;;;;;6.25;1.40;;;26.20;40.30;;;;;;4955788;29;20028;-73
2022/08/12 14:03:15;;;;;;;5.07;2.03;;;26.10;39.50;;;;;;4955604;29;20043;-74
2022/08/12 14:05:41;;;;;;;9.80;1.95;;;26.10;39.80;;;;;;4955349;28;20038;-73
2022/08/12 14:08:09;;;;;;;9.57;2.42;;;26.10;40.00;;;;;;4938363;29;20660;-72
2022/08/12 14:10:39;;;;;;;11.88;2.15;;;26.10;40.40;;;;;;4955467;29;20488;-73
2022/08/12 14:13:06;;;;;;;4.78;2.10;;;26.10;40.50;;;;;;4955478;29;20110;-74
2022/08/12 14:15:41;;;;;;;6.07;1.80;;;26.10;40.20;;;;;;4937441;29;20039;-73
2022/08/12 14:18:08;;;;;;;7.30;1.50;;;26.10;40.60;;;;;;4955372;29;20026;-73
2022/08/12 14:20:33;;;;;;;10.93;1.92;;;26.10;39.40;;;;;;4955527;29;20043;-73
2022/08/12 14:22:59;;;;;;;8.82;1.80;;;26.10;39.90;;;;;;4955836;28;20031;-73
2022/08/12 14:25:27;;;;;;;5.82;2.40;;;26.20;41.00;;;;;;4954390;29;20047;-74
2022/08/12 14:27:54;;;;;;;4.35;1.70;;;26.10;41.30;;;;;;4955462;29;20037;-71
2022/08/12 14:30:22;;;;;;;11.00;2.13;;;26.20;40.90;;;;;;4953891;29;20034;-74
2022/08/12 14:32:48;;;;;;;5.20;1.80;;;26.20;40.50;;;;;;4955047;29;20039;-72
2022/08/12 14:35:13;;;;;;;7.05;1.70;;;26.20;40.10;;;;;;4954258;29;20019;-71
2022/08/12 14:37:40;;;;;;;6.28;1.77;;;26.20;39.50;;;;;;4962216;28;20101;-71
2022/08/12 14:40:06;;;;;;;5.45;1.63;;;26.20;39.50;;;;;;4956710;28;20041;-74
2022/08/12 14:42:32;;;;;;;7.18;1.50;;;26.30;39.90;;;;;;4930743;28;20414;-73
2022/08/12 14:44:58;;;;;;;5.30;1.48;;;26.30;39.40;;;;;;4974178;28;20045;-71
2022/08/12 14:47:25;;;;;;;2.50;1.30;;;26.30;39.30;;;;;;4973572;28;20058;-72
2022/08/12 14:49:50;;;;;;;2.95;1.60;;;26.20;39.30;;;;;;4974164;28;20078;-71